createdAt,value
2018-08-07T00:00:17.041Z,2.15
2018-08-07T00:02:51.356Z,2.00
2018-08-07T00:05:24.702Z,1.80
2018-08-07T00:07:58.047Z,1.95
2018-08-07T00:10:31.369Z,2.20
2018-08-07T00:13:04.793Z,2.05
2018-08-07T00:15:38.188Z,2.05
2018-08-07T00:18:11.537Z,2.20
2018-08-07T00:20:44.886Z,2.10
2018-08-07T00:23:18.233Z,2.00
2018-08-07T00:25:51.605Z,2.15
2018-08-07T00:28:24.937Z,1.90
2018-08-07T00:31:03.675Z,2.58
2018-08-07T00:33:37.047Z,2.17
2018-08-07T00:36:10.364Z,1.90
2018-08-07T00:38:43.691Z,2.10
2018-08-07T00:41:17.150Z,2.20
2018-08-07T00:43:50.481Z,1.92
2018-08-07T00:46:23.804Z,1.98
2018-08-07T00:48:57.138Z,2.52
2018-08-07T00:51:30.508Z,2.20
2018-08-07T00:54:03.859Z,2.50
2018-08-07T00:56:37.264Z,1.98
2018-08-07T00:59:10.581Z,2.15
2018-08-07T01:01:43.949Z,2.10
2018-08-07T01:04:17.248Z,2.10
2018-08-07T01:06:50.569Z,2.08
2018-08-07T01:09:23.871Z,2.50
2018-08-07T01:11:57.190Z,1.90
2018-08-07T01:14:30.558Z,2.30
2018-08-07T01:17:03.953Z,2.02
2018-08-07T01:19:37.356Z,1.85
2018-08-07T01:22:10.684Z,2.00
2018-08-07T01:24:44.021Z,1.90
2018-08-07T01:27:17.312Z,2.45
2018-08-07T01:29:50.632Z,2.10
2018-08-07T01:32:23.954Z,2.10
2018-08-07T01:34:57.271Z,2.10
2018-08-07T01:37:30.582Z,1.90
2018-08-07T01:40:04.143Z,2.25
2018-08-07T01:42:37.503Z,2.27
2018-08-07T01:45:11.257Z,1.80
2018-08-07T01:47:44.586Z,2.12
2018-08-07T01:50:17.933Z,2.12
2018-08-07T01:52:51.260Z,2.12
2018-08-07T01:55:26.281Z,2.70
2018-08-07T01:57:59.601Z,2.67
2018-08-07T02:00:32.932Z,2.22
2018-08-07T02:03:06.280Z,2.10
2018-08-07T02:05:40.706Z,2.37
2018-08-07T02:08:14.044Z,1.95
2018-08-07T02:10:47.377Z,2.30
2018-08-07T02:13:20.898Z,2.40
2018-08-07T02:15:54.264Z,2.75
2018-08-07T02:18:27.589Z,2.27
2018-08-07T02:21:00.957Z,2.42
2018-08-07T02:23:34.312Z,2.60
2018-08-07T02:26:07.801Z,2.67
2018-08-07T02:28:41.125Z,2.58
2018-08-07T02:31:14.465Z,2.10
2018-08-07T02:33:47.773Z,2.10
2018-08-07T02:36:21.158Z,2.00
2018-08-07T02:38:54.480Z,2.30
2018-08-07T02:41:27.840Z,2.30
2018-08-07T02:44:01.193Z,2.25
2018-08-07T02:46:34.566Z,2.35
2018-08-07T02:49:07.894Z,2.05
2018-08-07T02:51:41.253Z,2.08
2018-08-07T02:54:14.601Z,2.45
2018-08-07T02:56:47.929Z,2.58
2018-08-07T02:59:21.352Z,2.40
2018-08-07T03:01:54.780Z,2.33
2018-08-07T03:04:28.114Z,2.40
2018-08-07T03:07:01.487Z,2.08
2018-08-07T03:09:34.882Z,2.40
2018-08-07T03:12:08.261Z,2.30
2018-08-07T03:14:41.605Z,2.40
2018-08-07T03:17:15.001Z,2.35
2018-08-07T03:19:48.400Z,2.85
2018-08-07T03:22:21.812Z,2.20
2018-08-07T03:24:55.190Z,2.37
2018-08-07T03:27:28.609Z,2.20
2018-08-07T03:30:01.948Z,2.20
2018-08-07T03:32:35.301Z,2.55
2018-08-07T03:35:09.061Z,2.30
2018-08-07T03:37:42.780Z,2.10
2018-08-07T03:40:19.394Z,1.98
2018-08-07T03:42:52.725Z,1.98
2018-08-07T03:45:26.122Z,2.20
2018-08-07T03:47:59.465Z,2.67
2018-08-07T03:50:32.794Z,2.35
2018-08-07T03:53:06.391Z,2.70
2018-08-07T03:55:39.659Z,2.05
2018-08-07T03:58:13.007Z,2.33
2018-08-07T04:00:49.242Z,2.45
2018-08-07T04:03:22.569Z,2.35
2018-08-07T04:05:55.909Z,2.20
2018-08-07T04:08:29.272Z,2.45
2018-08-07T04:11:02.572Z,2.27
2018-08-07T04:13:36.004Z,2.58
2018-08-07T04:16:09.334Z,2.40
2018-08-07T04:18:42.719Z,1.90
2018-08-07T04:21:16.065Z,2.12
2018-08-07T04:23:49.441Z,2.22
2018-08-07T04:26:22.794Z,2.27
2018-08-07T04:28:56.131Z,2.10
2018-08-07T04:31:29.466Z,2.50
2018-08-07T04:34:02.842Z,2.55
2018-08-07T04:36:36.206Z,2.00
2018-08-07T04:39:11.820Z,2.60
2018-08-07T04:41:45.168Z,2.05
2018-08-07T04:44:18.523Z,2.10
2018-08-07T04:46:51.913Z,2.17
2018-08-07T04:49:25.323Z,2.30
2018-08-07T04:51:58.657Z,2.47
2018-08-07T04:54:31.998Z,2.05
2018-08-07T04:57:05.709Z,1.98
2018-08-07T04:59:39.060Z,2.10
2018-08-07T05:02:12.409Z,2.47
2018-08-07T05:04:45.718Z,2.12
2018-08-07T05:07:19.105Z,2.40
2018-08-07T05:09:52.414Z,2.33
2018-08-07T05:12:25.829Z,2.27
2018-08-07T05:14:59.135Z,2.58
2018-08-07T05:17:32.493Z,2.10
2018-08-07T05:20:05.876Z,2.25
2018-08-07T05:22:40.095Z,2.35
2018-08-07T05:25:13.819Z,2.42
2018-08-07T05:27:47.136Z,2.05
2018-08-07T05:30:20.441Z,2.60
2018-08-07T05:32:53.758Z,2.47
2018-08-07T05:35:27.108Z,2.70
2018-08-07T05:38:00.421Z,2.37
2018-08-07T05:40:33.732Z,2.50
2018-08-07T05:43:07.257Z,2.20
2018-08-07T05:45:40.560Z,2.70
2018-08-07T05:48:13.892Z,2.50
2018-08-07T05:50:47.688Z,2.30
2018-08-07T05:53:20.736Z,2.60
2018-08-07T05:55:54.028Z,2.70
2018-08-07T05:58:27.364Z,2.47
2018-08-07T06:01:00.712Z,2.60
2018-08-07T06:03:34.058Z,2.65
2018-08-07T06:06:07.422Z,2.50
2018-08-07T06:08:40.768Z,2.60
2018-08-07T06:11:14.085Z,2.98
2018-08-07T06:13:47.454Z,2.95
2018-08-07T06:16:20.809Z,2.75
2018-08-07T06:18:54.212Z,2.33
2018-08-07T06:21:27.535Z,2.35
2018-08-07T06:24:00.897Z,2.80
2018-08-07T06:26:34.195Z,2.25
2018-08-07T06:29:07.623Z,2.30
2018-08-07T06:31:40.996Z,2.45
2018-08-07T06:34:14.325Z,2.30
2018-08-07T06:36:47.630Z,2.00
2018-08-07T06:39:20.945Z,2.87
2018-08-07T06:41:54.247Z,2.30
2018-08-07T06:44:27.585Z,2.70
2018-08-07T06:47:00.975Z,2.77
2018-08-07T06:49:34.304Z,2.58
2018-08-07T06:52:07.685Z,2.27
2018-08-07T06:54:41.008Z,2.17
2018-08-07T06:57:14.367Z,2.58
2018-08-07T06:59:47.695Z,2.33
2018-08-07T07:02:21.017Z,2.33
2018-08-07T07:04:54.335Z,2.25
2018-08-07T07:07:27.664Z,2.42
2018-08-07T07:10:00.985Z,2.47
2018-08-07T07:12:34.323Z,2.00
2018-08-07T07:15:08.995Z,2.40
2018-08-07T07:17:43.397Z,2.62
2018-08-07T07:20:17.837Z,2.20
2018-08-07T07:22:51.155Z,2.15
2018-08-07T07:25:24.485Z,2.25
2018-08-07T07:27:57.769Z,2.25
2018-08-07T07:30:31.076Z,2.50
2018-08-07T07:33:04.554Z,2.20
2018-08-07T07:35:37.905Z,2.55
2018-08-07T07:38:11.218Z,2.30
2018-08-07T07:40:44.594Z,2.52
2018-08-07T07:43:17.869Z,2.12
2018-08-07T07:45:51.190Z,2.40
2018-08-07T07:48:24.528Z,2.45
2018-08-07T07:50:57.850Z,2.55
2018-08-07T07:53:31.186Z,2.30
2018-08-07T07:56:04.580Z,2.27
2018-08-07T07:58:38.082Z,2.20
2018-08-07T08:01:11.438Z,2.45
2018-08-07T08:03:44.742Z,2.12
2018-08-07T08:06:18.064Z,2.37
2018-08-07T08:08:51.376Z,2.37
2018-08-07T08:11:24.725Z,2.17
2018-08-07T08:13:58.029Z,2.40
2018-08-07T08:16:31.416Z,2.52
2018-08-07T08:19:04.785Z,2.50
2018-08-07T08:21:38.213Z,2.20
2018-08-07T08:24:11.557Z,2.35
2018-08-07T08:26:44.897Z,2.10
2018-08-07T08:29:18.393Z,2.50
2018-08-07T08:31:51.637Z,2.25
2018-08-07T08:34:27.023Z,2.00
2018-08-07T08:37:00.344Z,2.60
2018-08-07T08:39:33.653Z,1.90
2018-08-07T08:42:07.157Z,2.25
2018-08-07T08:44:40.488Z,1.80
2018-08-07T08:47:13.851Z,2.33
2018-08-07T08:49:47.157Z,2.42
2018-08-07T08:52:20.537Z,2.08
2018-08-07T08:54:53.867Z,2.55
2018-08-07T08:57:27.209Z,2.37
2018-08-07T09:00:00.748Z,2.15
2018-08-07T09:02:34.092Z,1.98
2018-08-07T09:05:09.233Z,2.37
2018-08-07T09:07:43.029Z,2.30
2018-08-07T09:10:21.651Z,2.20
2018-08-07T09:12:55.619Z,2.72
2018-08-07T09:15:29.582Z,1.87
2018-08-07T09:18:02.915Z,2.50
2018-08-07T09:20:36.316Z,2.30
2018-08-07T09:23:09.657Z,2.22
2018-08-07T09:25:43.122Z,2.20
2018-08-07T09:28:16.414Z,1.95
2018-08-07T09:30:49.768Z,2.10
2018-08-07T09:33:23.514Z,2.00
2018-08-07T09:35:56.901Z,2.05
2018-08-07T09:38:30.237Z,2.17
2018-08-07T09:41:03.912Z,2.10
2018-08-07T09:43:37.242Z,1.98
2018-08-07T09:46:10.612Z,2.20
2018-08-07T09:48:43.987Z,2.22
2018-08-07T09:51:17.325Z,2.00
2018-08-07T09:53:50.676Z,2.10
2018-08-07T09:56:24.017Z,2.30
2018-08-07T09:58:57.389Z,2.12
2018-08-07T10:01:31.681Z,2.10
2018-08-07T10:04:05.041Z,1.90
2018-08-07T10:06:38.349Z,1.92
2018-08-07T10:09:11.691Z,2.20
2018-08-07T10:11:45.291Z,2.12
2018-08-07T10:14:18.702Z,2.35
2018-08-07T10:16:52.272Z,1.98
2018-08-07T10:19:26.823Z,2.30
2018-08-07T10:22:00.376Z,2.50
2018-08-07T10:24:34.056Z,2.37
2018-08-07T10:27:07.396Z,2.22
2018-08-07T10:29:40.723Z,2.33
2018-08-07T10:32:14.071Z,2.52
2018-08-07T10:34:47.435Z,2.52
2018-08-07T10:37:20.766Z,2.40
2018-08-07T10:39:54.145Z,2.33
2018-08-07T10:42:27.504Z,2.25
2018-08-07T10:45:29.846Z,2.17
2018-08-07T10:48:03.282Z,2.33
2018-08-07T10:50:36.718Z,2.55
2018-08-07T10:53:10.176Z,2.92
2018-08-07T10:55:43.620Z,2.77
2018-08-07T10:58:17.065Z,2.40
2018-08-07T11:00:50.532Z,2.60
2018-08-07T11:03:23.948Z,2.98
2018-08-07T11:05:57.408Z,3.35
2018-08-07T11:08:30.867Z,3.42
2018-08-07T11:11:04.283Z,3.20
2018-08-07T11:13:37.790Z,3.10
2018-08-07T11:16:11.186Z,2.95
2018-08-07T11:18:44.635Z,3.33
2018-08-07T11:21:18.069Z,3.25
2018-08-07T11:23:51.483Z,3.02
2018-08-07T11:26:24.877Z,3.20
2018-08-07T11:28:58.311Z,3.30
2018-08-07T11:31:31.778Z,3.30
2018-08-07T11:34:05.197Z,3.05
2018-08-07T11:36:38.632Z,3.20
2018-08-07T11:39:12.104Z,3.08
2018-08-07T11:41:45.504Z,3.25
2018-08-07T11:44:18.910Z,2.80
2018-08-07T11:46:52.361Z,2.90
2018-08-07T11:49:25.799Z,3.33
2018-08-07T11:51:59.213Z,3.50
2018-08-07T11:54:32.727Z,3.17
2018-08-07T11:57:06.756Z,2.85
2018-08-07T11:59:40.244Z,3.05
2018-08-07T12:02:14.638Z,3.15
2018-08-07T12:04:48.933Z,3.05
2018-08-07T12:07:22.344Z,2.90
2018-08-07T12:09:55.784Z,3.15
2018-08-07T12:12:29.454Z,3.30
2018-08-07T12:15:02.915Z,3.12
2018-08-07T12:17:36.691Z,3.33
2018-08-07T12:20:10.108Z,2.83
2018-08-07T12:22:43.555Z,2.83
2018-08-07T12:25:17.749Z,3.25
2018-08-07T12:27:51.226Z,3.25
2018-08-07T12:30:26.877Z,2.90
2018-08-07T12:33:00.715Z,2.98
2018-08-07T12:35:34.181Z,3.08
2018-08-07T12:38:07.671Z,3.30
2018-08-07T12:40:41.113Z,2.98
2018-08-07T12:43:14.518Z,2.80
2018-08-07T12:45:47.928Z,3.20
2018-08-07T12:48:21.350Z,3.10
2018-08-07T12:50:54.764Z,3.30
2018-08-07T12:53:28.224Z,3.25
2018-08-07T12:56:01.671Z,2.92
2018-08-07T12:58:35.114Z,3.20
2018-08-07T13:01:08.549Z,4.08
2018-08-07T13:03:42.002Z,3.25
2018-08-07T13:06:15.408Z,3.08
2018-08-07T13:08:48.820Z,3.20
2018-08-07T13:11:22.235Z,3.30
2018-08-07T13:13:56.034Z,3.00
2018-08-07T13:16:29.456Z,3.20
2018-08-07T13:19:02.879Z,3.40
2018-08-07T13:21:36.306Z,3.60
2018-08-07T13:24:09.763Z,3.47
2018-08-07T13:26:43.199Z,3.22
2018-08-07T13:29:16.653Z,3.22
2018-08-07T13:31:50.045Z,3.45
2018-08-07T13:34:23.543Z,3.12
2018-08-07T13:36:56.990Z,3.08
2018-08-07T13:39:30.458Z,3.12
2018-08-07T13:42:03.877Z,3.22
2018-08-07T13:44:37.365Z,3.37
2018-08-07T13:47:10.860Z,3.40
2018-08-07T13:49:44.358Z,3.17
2018-08-07T13:52:17.753Z,3.25
2018-08-07T13:54:51.190Z,2.80
2018-08-07T13:57:24.578Z,3.37
2018-08-07T13:59:57.986Z,3.05
2018-08-07T14:02:31.371Z,3.05
2018-08-07T14:05:05.171Z,2.92
2018-08-07T14:07:38.571Z,3.02
2018-08-07T14:10:13.138Z,3.08
2018-08-07T14:12:46.584Z,3.20
2018-08-07T14:15:20.871Z,2.80
2018-08-07T14:17:54.252Z,2.70
2018-08-07T14:20:27.712Z,3.20
2018-08-07T14:23:01.147Z,2.80
2018-08-07T14:25:34.551Z,3.02
2018-08-07T14:28:07.973Z,3.25
2018-08-07T14:30:41.373Z,3.52
2018-08-07T14:33:14.758Z,3.15
2018-08-07T14:35:48.205Z,2.90
2018-08-07T14:38:21.617Z,3.75
2018-08-07T14:40:55.080Z,3.08
2018-08-07T14:43:28.515Z,3.58
2018-08-07T14:46:01.928Z,3.27
2018-08-07T14:48:35.312Z,3.35
2018-08-07T14:51:08.721Z,3.35
2018-08-07T14:53:42.108Z,3.27
2018-08-07T14:56:15.512Z,3.30
2018-08-07T14:58:48.955Z,3.52
2018-08-07T15:01:22.384Z,3.17
2018-08-07T15:03:55.947Z,3.20
2018-08-07T15:06:29.451Z,3.70
2018-08-07T15:09:02.820Z,2.92
2018-08-07T15:11:36.240Z,3.52
2018-08-07T15:14:10.599Z,3.10
2018-08-07T15:16:44.116Z,3.08
2018-08-07T15:19:17.476Z,3.10
2018-08-07T15:21:50.928Z,3.33
2018-08-07T15:24:24.319Z,3.40
2018-08-07T15:26:57.780Z,3.50
2018-08-07T15:29:31.237Z,3.65
2018-08-07T15:32:04.671Z,3.50
2018-08-07T15:34:38.099Z,3.72
2018-08-07T15:37:11.560Z,3.33
2018-08-07T15:39:44.970Z,3.33
2018-08-07T15:42:18.390Z,3.40
2018-08-07T15:44:51.798Z,3.45
2018-08-07T15:47:25.272Z,3.35
2018-08-07T15:49:58.715Z,3.72
2018-08-07T15:52:32.127Z,3.10
2018-08-07T15:55:05.613Z,3.92
2018-08-07T15:57:39.081Z,3.25
2018-08-07T16:00:19.427Z,3.98
2018-08-07T16:02:53.129Z,3.30
2018-08-07T16:05:26.569Z,3.52
2018-08-07T16:08:00.044Z,3.87
2018-08-07T16:10:33.526Z,3.85
2018-08-07T16:13:06.936Z,3.60
2018-08-07T16:15:40.383Z,3.52
2018-08-07T16:18:13.496Z,3.95
2018-08-07T16:20:47.384Z,3.85
2018-08-07T16:23:20.935Z,3.65
2018-08-07T16:25:54.829Z,3.65
2018-08-07T16:28:28.275Z,3.77
2018-08-07T16:31:02.196Z,3.87
2018-08-07T16:33:35.727Z,3.90
2018-08-07T16:36:09.148Z,3.62
2018-08-07T16:38:42.835Z,3.87
2018-08-07T16:41:16.294Z,3.25
2018-08-07T16:43:49.743Z,3.17
2018-08-07T16:46:23.187Z,3.45
2018-08-07T16:48:58.837Z,3.65
2018-08-07T16:51:32.895Z,3.70
2018-08-07T16:54:06.651Z,3.27
2018-08-07T16:56:40.079Z,3.65
2018-08-07T16:59:13.527Z,3.50
2018-08-07T17:01:47.144Z,3.55
2018-08-07T17:04:20.576Z,3.60
2018-08-07T17:06:53.972Z,3.65
2018-08-07T17:09:27.498Z,3.30
2018-08-07T17:12:00.944Z,3.33
2018-08-07T17:14:34.331Z,3.20
2018-08-07T17:17:07.801Z,3.62
2018-08-07T17:19:41.711Z,3.85
2018-08-07T17:22:15.282Z,3.42
2018-08-07T17:24:49.108Z,3.45
2018-08-07T17:27:22.592Z,3.75
2018-08-07T17:29:55.990Z,3.60
2018-08-07T17:32:29.404Z,3.65
2018-08-07T17:35:02.781Z,3.30
2018-08-07T17:37:36.243Z,3.67
2018-08-07T17:40:11.479Z,3.40
2018-08-07T17:42:44.928Z,3.40
2018-08-07T17:45:18.358Z,3.62
2018-08-07T17:47:51.800Z,3.50
2018-08-07T17:50:26.279Z,3.50
2018-08-07T17:53:00.352Z,3.45
2018-08-07T17:55:33.769Z,3.17
2018-08-07T17:58:07.226Z,3.47
2018-08-07T18:00:40.659Z,3.58
2018-08-07T18:03:14.089Z,3.27
2018-08-07T18:05:47.493Z,3.72
2018-08-07T18:08:21.022Z,3.52
2018-08-07T18:10:54.400Z,3.80
2018-08-07T18:13:27.872Z,2.95
2018-08-07T18:16:01.283Z,3.37
2018-08-07T18:18:34.760Z,3.58
2018-08-07T18:21:08.176Z,2.98
2018-08-07T18:23:43.085Z,3.72
2018-08-07T18:26:16.584Z,3.42
2018-08-07T18:28:50.008Z,3.20
2018-08-07T18:31:23.436Z,3.40
2018-08-07T18:33:56.871Z,3.25
2018-08-07T18:36:30.287Z,3.20
2018-08-07T18:39:04.410Z,3.50
2018-08-07T18:41:38.397Z,3.20
2018-08-07T18:44:11.851Z,3.67
2018-08-07T18:46:46.069Z,3.50
2018-08-07T18:49:19.468Z,3.95
2018-08-07T18:51:52.855Z,3.80
2018-08-07T18:54:26.273Z,3.85
2018-08-07T18:56:59.666Z,3.55
2018-08-07T18:59:33.894Z,4.20
2018-08-07T19:02:07.936Z,3.80
2018-08-07T19:04:41.335Z,3.55
2018-08-07T19:07:14.806Z,4.15
2018-08-07T19:09:48.225Z,3.47
2018-08-07T19:12:21.643Z,3.62
2018-08-07T19:14:55.058Z,3.72
2018-08-07T19:17:28.524Z,3.80
2018-08-07T19:20:02.012Z,3.35
2018-08-07T19:22:35.440Z,4.00
2018-08-07T19:25:09.812Z,4.20
2018-08-07T19:27:43.439Z,3.83
2018-08-07T19:30:18.438Z,4.28
2018-08-07T19:32:51.888Z,4.53
2018-08-07T19:35:25.296Z,4.10
2018-08-07T19:37:58.763Z,3.50
2018-08-07T19:40:32.174Z,4.05
2018-08-07T19:43:06.033Z,4.30
2018-08-07T19:45:39.462Z,4.20
2018-08-07T19:48:12.943Z,4.85
2018-08-07T19:50:46.330Z,4.42
2018-08-07T19:53:19.748Z,4.78
2018-08-07T19:55:53.186Z,4.95
2018-08-07T19:58:26.714Z,4.42
2018-08-07T20:01:00.584Z,4.25
2018-08-07T20:03:34.116Z,4.22
2018-08-07T20:06:07.583Z,4.28
2018-08-07T20:08:40.970Z,4.17
2018-08-07T20:11:14.364Z,3.92
2018-08-07T20:13:47.840Z,4.30
2018-08-07T20:16:21.240Z,4.40
2018-08-07T20:18:54.642Z,4.80
2018-08-07T20:21:28.028Z,4.42
2018-08-07T20:24:01.477Z,4.83
2018-08-07T20:26:34.928Z,5.10
2018-08-07T20:29:08.374Z,4.72
2018-08-07T20:31:41.769Z,4.62
2018-08-07T20:34:15.184Z,4.53
2018-08-07T20:36:48.573Z,5.08
2018-08-07T20:39:21.960Z,5.15
2018-08-07T20:41:55.358Z,4.80
2018-08-07T20:44:28.788Z,4.50
2018-08-07T20:47:02.191Z,4.53
2018-08-07T20:49:35.635Z,4.95
2018-08-07T20:52:09.025Z,4.35
2018-08-07T20:54:42.452Z,5.35
2018-08-07T20:57:15.854Z,4.70
2018-08-07T20:59:49.264Z,5.05
2018-08-07T21:02:22.681Z,4.60
2018-08-07T21:04:56.084Z,4.80
2018-08-07T21:07:29.621Z,5.08
2018-08-07T21:10:03.293Z,5.47
2018-08-07T21:12:36.883Z,6.28
2018-08-07T21:15:11.131Z,5.60
2018-08-07T21:17:44.496Z,5.45
2018-08-07T21:20:19.496Z,5.78
2018-08-07T21:22:52.892Z,6.25
2018-08-07T21:25:26.341Z,6.00
2018-08-07T21:28:00.595Z,5.55
2018-08-07T21:30:34.048Z,6.10
2018-08-07T21:33:07.547Z,5.55
2018-08-07T21:35:41.020Z,5.87
2018-08-07T21:38:14.387Z,5.67
2018-08-07T21:40:47.780Z,5.90
2018-08-07T21:43:21.183Z,5.50
2018-08-07T21:45:54.592Z,5.42
2018-08-07T21:48:27.984Z,6.05
2018-08-07T21:51:01.409Z,5.75
2018-08-07T21:53:34.813Z,5.90
2018-08-07T21:56:08.234Z,5.35
2018-08-07T21:58:41.695Z,5.50
2018-08-07T22:01:15.110Z,6.45
2018-08-07T22:03:48.567Z,5.97
2018-08-07T22:06:21.935Z,5.58
2018-08-07T22:08:55.365Z,5.42
2018-08-07T22:11:28.816Z,5.65
2018-08-07T22:14:02.247Z,5.55
2018-08-07T22:16:35.771Z,5.47
2018-08-07T22:19:09.184Z,5.28
2018-08-07T22:21:42.616Z,6.47
2018-08-07T22:24:15.995Z,6.67
2018-08-07T22:26:49.391Z,5.67
2018-08-07T22:29:22.759Z,6.08
2018-08-07T22:31:56.155Z,6.03
2018-08-07T22:34:29.594Z,5.92
2018-08-07T22:37:03.099Z,5.65
2018-08-07T22:39:36.681Z,5.70
2018-08-07T22:42:10.278Z,6.28
2018-08-07T22:44:43.821Z,6.10
2018-08-07T22:47:17.353Z,6.17
2018-08-07T22:49:50.910Z,6.22
2018-08-07T22:52:24.527Z,6.67
2018-08-07T22:54:57.972Z,6.28
2018-08-07T22:57:31.430Z,5.67
2018-08-07T23:00:08.330Z,6.53
2018-08-07T23:02:41.835Z,5.47
2018-08-07T23:05:16.218Z,6.80
2018-08-07T23:07:49.650Z,6.25
2018-08-07T23:10:23.034Z,6.50
2018-08-07T23:12:56.494Z,6.15
2018-08-07T23:15:30.298Z,6.65
2018-08-07T23:18:03.684Z,6.17
2018-08-07T23:20:37.099Z,6.42
2018-08-07T23:23:10.651Z,7.00
2018-08-07T23:25:44.042Z,5.95
2018-08-07T23:28:17.439Z,5.90
2018-08-07T23:30:50.886Z,7.03
2018-08-07T23:33:24.246Z,5.70
2018-08-07T23:35:56.623Z,6.75
2018-08-07T23:38:30.036Z,6.35
2018-08-07T23:41:03.416Z,6.33
2018-08-07T23:43:36.841Z,7.58
2018-08-07T23:46:10.219Z,6.95
2018-08-07T23:48:43.599Z,6.85
2018-08-07T23:51:17.054Z,7.00
2018-08-07T23:53:50.471Z,6.70
2018-08-07T23:56:23.895Z,7.60
2018-08-07T23:58:57.315Z,6.58
